Airfield :
LOGIN :

Register | Disclaimer

   EN    FR    IT 

 










Legend :    VFR   Marginal VFR   IFR   Intensive IFR   Very Intensive IFR
Visi :
Ceiling :
>= 8 km
>= 3000ft
5 to 8 km
1000 to 3000 ft
1500m to 5 km
500 to 1000 ft
800 to 1500m
200 to 500 ft
< 800m
< 200 ft
Symbols :   Thunderstorms  Fog  Heavy snow  Heavy precipitations  Wind > 20 kt
SIGMETs :     Misc.  Thunderstorms  Icing  Turbulence  Mountain Waves  Volcanic Ashes







- Airport Elevation : 7 ft
- IATA code : POW


LJPZ - Portoroz

CURRENT METAR :
  • 221200Z 05012KT 020V090 9999 SCT050 BKN080 08/M03 Q1007

EXPIRED METARs :
  • 221130Z 06007KT 010V100 9999 FEW040 BKN050 06/M04 Q1007
  • 221100Z 05007KT 010V080 9999 SCT040 OVC050 06/M04 Q1007
  • 221030Z 05004KT 010V100 9999 SCT036 OVC045 05/M04 Q1007
  • 221000Z 05008KT 010V080 9999 SCT036 OVC045 05/M03 Q1007
  • 220930Z 04008KT 350V090 9999 SCT036 OVC045 05/M04 Q1007

TAF TAF LJPZ
Valid from the 22 at 12:00 until the 22 at 21:00 UTC


221100Z 2212/2221 06010G20KT 9999 SCT040 OVC060
TEMPO 2212/2218 06015G30KT BKN045
No reported NOTAMs for that airfield.
1 SIGMET reported for the Ljubljana FIR (LJLA) :
 
Severe turbulence
LJLA SIGMET 4 VALID 221100/221400 LJLJ
LJLA LJUBLJANA FIR SEV TURB FCST SW OF LINE N4536 E01431 - N4606 E01335 SFC/6000FT STNR NC=



MET'MAP, your aeronautical weather chart ! - Copyright ORBIFLY December 2007 - Disclaimer

ORBIFLY MET'MAP TEAM :

Programming & Development : Alexandra Zaïnal
Concept & Development : Baudouin d'Aumeries
Co-Development & Prog : Marc-Olivier Méhu
Technical & hardware support : Manuel Goepfert

Contact : metmap@orbifly.com




SOURCES & CREDITS :

   NOAA